createdAt,value
2022-08-19T00:00:59.718Z,20.80
2022-08-19T00:03:26.443Z,20.70
2022-08-19T00:05:53.827Z,20.70
2022-08-19T00:08:20.563Z,20.80
2022-08-19T00:10:48.899Z,20.80
2022-08-19T00:13:16.630Z,20.80
2022-08-19T00:15:45.599Z,20.80
2022-08-19T00:18:12.357Z,20.80
2022-08-19T00:20:41.260Z,20.80
2022-08-19T00:23:08.122Z,20.90
2022-08-19T00:25:34.811Z,20.80
2022-08-19T00:28:01.501Z,20.90
2022-08-19T00:30:28.922Z,20.80
2022-08-19T00:32:56.063Z,20.80
2022-08-19T00:35:22.761Z,20.80
2022-08-19T00:37:50.183Z,20.80
2022-08-19T00:40:17.577Z,20.80
2022-08-19T00:42:44.447Z,20.80
2022-08-19T00:45:22.303Z,20.80
2022-08-19T00:47:49.035Z,20.80
2022-08-19T00:50:17.253Z,20.80
2022-08-19T00:52:46.448Z,20.80
2022-08-19T00:55:20.424Z,20.80
2022-08-19T00:57:49.525Z,20.80
2022-08-19T01:00:17.832Z,20.80
2022-08-19T01:02:44.620Z,20.80
2022-08-19T01:05:19.462Z,20.80
2022-08-19T01:07:46.267Z,20.80
2022-08-19T01:10:15.446Z,20.80
2022-08-19T01:12:42.323Z,20.90
2022-08-19T01:15:10.497Z,20.90
2022-08-19T01:17:37.450Z,20.90
2022-08-19T01:20:05.055Z,20.90
2022-08-19T01:22:33.853Z,20.90
2022-08-19T01:25:01.167Z,20.90
2022-08-19T01:27:29.899Z,20.90
2022-08-19T01:30:02.103Z,20.90
2022-08-19T01:32:33.153Z,20.90
2022-08-19T01:35:03.367Z,20.90
2022-08-19T01:37:31.446Z,20.90
2022-08-19T01:39:58.473Z,20.80
2022-08-19T01:42:30.246Z,20.80
2022-08-19T01:44:57.664Z,20.80
2022-08-19T01:47:24.377Z,20.80
2022-08-19T01:49:51.096Z,20.80
2022-08-19T01:52:17.872Z,20.80
2022-08-19T01:54:44.608Z,20.80
2022-08-19T01:57:12.533Z,20.80
2022-08-19T01:59:39.234Z,20.90
2022-08-19T02:02:08.194Z,20.80
2022-08-19T02:04:35.174Z,20.90
2022-08-19T02:07:02.485Z,20.80
2022-08-19T02:09:29.168Z,20.80
2022-08-19T02:11:55.887Z,20.80
2022-08-19T02:14:22.564Z,20.70
2022-08-19T02:16:49.293Z,20.70
2022-08-19T02:19:16.019Z,20.70
2022-08-19T02:21:43.513Z,20.70
2022-08-19T02:24:10.396Z,20.70
2022-08-19T02:26:37.123Z,20.70
2022-08-19T02:29:03.850Z,20.70
2022-08-19T02:31:30.737Z,20.70
2022-08-19T02:33:57.682Z,20.70
2022-08-19T02:36:24.953Z,20.70
2022-08-19T02:38:54.218Z,20.60
2022-08-19T02:41:23.915Z,20.60
2022-08-19T02:44:29.086Z,20.60
2022-08-19T02:46:41.827Z,20.60
2022-08-19T02:49:08.605Z,20.60
2022-08-19T02:51:37.698Z,20.60
2022-08-19T02:54:05.064Z,20.60
2022-08-19T02:56:31.854Z,20.60
2022-08-19T02:58:59.349Z,20.70
2022-08-19T03:01:29.033Z,20.60
2022-08-19T03:03:56.458Z,20.60
2022-08-19T03:06:23.606Z,20.70
2022-08-19T03:08:50.472Z,20.70
2022-08-19T03:11:30.240Z,20.70
2022-08-19T03:13:57.072Z,20.70
2022-08-19T03:16:24.900Z,20.70
2022-08-19T03:18:52.340Z,20.70
2022-08-19T03:21:22.115Z,20.70
2022-08-19T03:23:48.813Z,20.70
2022-08-19T03:26:17.100Z,20.70
2022-08-19T03:28:51.842Z,20.60
2022-08-19T03:31:44.794Z,20.70
2022-08-19T03:34:15.474Z,20.70
2022-08-19T03:36:42.324Z,20.70
2022-08-19T03:39:09.483Z,20.70
2022-08-19T03:41:44.992Z,20.60
2022-08-19T03:44:16.822Z,20.70
2022-08-19T03:46:44.957Z,20.70
2022-08-19T03:49:11.792Z,20.70
2022-08-19T03:51:41.257Z,20.70
2022-08-19T03:54:09.158Z,20.70
2022-08-19T03:56:39.833Z,20.70
2022-08-19T03:59:08.075Z,20.60
2022-08-19T04:01:35.948Z,20.60
2022-08-19T04:04:04.622Z,20.60
2022-08-19T04:06:33.356Z,20.60
2022-08-19T04:09:00.685Z,20.60
2022-08-19T04:11:43.197Z,20.60
2022-08-19T04:14:16.076Z,20.60
2022-08-19T04:16:44.709Z,20.60
2022-08-19T04:19:11.670Z,20.60
2022-08-19T04:21:38.413Z,20.70
2022-08-19T04:24:06.777Z,20.70
2022-08-19T04:26:35.833Z,20.70
2022-08-19T04:29:04.475Z,20.70
2022-08-19T04:31:32.217Z,20.70
2022-08-19T04:34:00.279Z,20.70
2022-08-19T04:36:31.585Z,20.70
2022-08-19T04:38:59.795Z,20.70
2022-08-19T04:41:45.102Z,20.70
2022-08-19T04:44:12.245Z,20.70
2022-08-19T04:46:40.053Z,20.70
2022-08-19T04:49:18.652Z,20.80
2022-08-19T04:51:46.919Z,20.90
2022-08-19T04:54:14.000Z,20.90
2022-08-19T04:56:41.370Z,20.90
2022-08-19T04:59:09.453Z,20.90
2022-08-19T05:01:37.414Z,21.00
2022-08-19T05:04:05.637Z,21.00
2022-08-19T05:06:34.609Z,21.00
2022-08-19T05:09:02.241Z,21.00
2022-08-19T05:11:31.022Z,21.00
2022-08-19T05:13:57.923Z,21.00
2022-08-19T05:16:25.378Z,21.00
2022-08-19T05:19:10.861Z,21.00
2022-08-19T05:21:56.317Z,21.00
2022-08-19T05:24:23.679Z,21.00
2022-08-19T05:26:51.393Z,21.00
2022-08-19T05:29:19.841Z,21.00
2022-08-19T05:31:52.008Z,21.00
2022-08-19T05:34:20.416Z,21.00
2022-08-19T05:36:47.294Z,21.00
2022-08-19T05:39:20.373Z,21.00
2022-08-19T05:41:54.307Z,20.90
2022-08-19T05:44:22.520Z,20.90
2022-08-19T05:46:49.304Z,20.90
2022-08-19T05:49:16.672Z,20.90
2022-08-19T05:51:43.699Z,20.90
2022-08-19T05:54:12.169Z,20.90
2022-08-19T05:56:39.020Z,20.90
2022-08-19T05:59:11.953Z,21.00
2022-08-19T06:01:39.703Z,21.00
2022-08-19T06:04:07.328Z,21.00
2022-08-19T06:06:35.202Z,21.00
2022-08-19T06:09:05.881Z,21.00
2022-08-19T06:11:39.877Z,21.00
2022-08-19T06:14:16.758Z,21.10
2022-08-19T06:16:43.723Z,21.10
2022-08-19T06:19:17.009Z,21.20
2022-08-19T06:21:47.487Z,21.20
2022-08-19T06:24:16.122Z,21.20
2022-08-19T06:26:51.225Z,21.20
2022-08-19T06:29:23.525Z,21.20
2022-08-19T06:31:53.160Z,21.20
2022-08-19T06:34:19.961Z,21.20
2022-08-19T06:36:48.621Z,21.20
2022-08-19T06:39:17.299Z,21.20
2022-08-19T06:41:50.615Z,21.20
2022-08-19T06:44:19.783Z,21.20
2022-08-19T06:46:54.898Z,21.20
2022-08-19T06:49:22.130Z,21.20
2022-08-19T06:51:49.421Z,21.20
2022-08-19T06:54:19.497Z,21.20
2022-08-19T06:56:46.810Z,21.30
2022-08-19T06:59:15.418Z,21.30
2022-08-19T07:01:47.959Z,21.30
2022-08-19T07:04:19.849Z,21.30
2022-08-19T07:06:55.025Z,21.30
2022-08-19T07:09:22.414Z,21.30
2022-08-19T07:11:50.428Z,21.30
2022-08-19T07:14:19.721Z,21.30
2022-08-19T07:16:50.717Z,21.30
2022-08-19T07:19:18.720Z,21.30
2022-08-19T07:21:47.122Z,21.30
2022-08-19T07:24:13.866Z,21.30
2022-08-19T07:26:42.388Z,21.30
2022-08-19T07:29:09.113Z,21.30
2022-08-19T07:31:38.582Z,21.30
2022-08-19T07:34:09.888Z,21.20
2022-08-19T07:36:37.741Z,21.20
2022-08-19T07:39:08.322Z,21.20
2022-08-19T07:41:36.288Z,21.20
2022-08-19T07:44:04.718Z,21.20
2022-08-19T07:46:35.357Z,21.20
2022-08-19T07:49:02.278Z,21.20
2022-08-19T07:51:36.516Z,21.30
2022-08-19T07:54:04.262Z,21.40
2022-08-19T07:56:31.041Z,21.50
2022-08-19T07:58:57.741Z,21.60
2022-08-19T08:01:26.304Z,21.70
2022-08-19T08:04:12.232Z,21.70
2022-08-19T08:06:57.933Z,21.80
2022-08-19T08:09:33.273Z,21.80
2022-08-19T08:12:08.962Z,21.80
2022-08-19T08:14:48.210Z,21.80
2022-08-19T08:17:16.169Z,21.80
2022-08-19T08:20:04.468Z,21.90
2022-08-19T08:22:49.952Z,22.10
2022-08-19T08:25:20.248Z,22.30
2022-08-19T08:27:47.760Z,22.40
2022-08-19T08:30:22.977Z,22.50
2022-08-19T08:32:50.014Z,22.50
2022-08-19T08:35:19.444Z,22.50
2022-08-19T08:37:46.997Z,22.50
2022-08-19T08:40:36.761Z,22.50
2022-08-19T08:43:11.422Z,22.40
2022-08-19T08:45:42.993Z,22.40
2022-08-19T08:48:32.258Z,22.40
2022-08-19T08:50:58.994Z,22.50
2022-08-19T08:53:26.290Z,22.70
2022-08-19T08:55:56.605Z,22.80
2022-08-19T08:58:55.060Z,23.00
2022-08-19T09:01:21.852Z,23.20
2022-08-19T09:03:48.577Z,23.40
2022-08-19T09:06:37.464Z,23.50
2022-08-19T09:09:14.802Z,23.70
2022-08-19T09:11:51.985Z,23.90
2022-08-19T09:14:51.224Z,24.00
2022-08-19T09:17:19.462Z,24.20
2022-08-19T09:20:04.984Z,24.30
2022-08-19T09:22:32.016Z,24.50
2022-08-19T09:24:58.729Z,24.50
2022-08-19T09:27:42.156Z,24.40
2022-08-19T09:30:32.241Z,24.40
2022-08-19T09:32:58.953Z,24.30
2022-08-19T09:35:28.353Z,24.20
2022-08-19T09:37:57.766Z,24.10
2022-08-19T09:40:27.837Z,24.00
2022-08-19T09:42:58.129Z,23.90
2022-08-19T09:45:25.079Z,23.70
2022-08-19T09:47:54.235Z,23.70
2022-08-19T09:50:22.328Z,23.70
2022-08-19T09:52:56.982Z,23.60
2022-08-19T09:55:24.678Z,23.60
2022-08-19T09:57:59.754Z,23.50
2022-08-19T10:00:27.686Z,23.50
2022-08-19T10:02:54.369Z,23.40
2022-08-19T10:05:42.504Z,23.30
2022-08-19T10:08:13.870Z,23.20
2022-08-19T10:10:46.814Z,23.10
2022-08-19T10:13:14.844Z,23.10
2022-08-19T10:15:47.535Z,23.10
2022-08-19T10:18:15.596Z,23.10
2022-08-19T10:20:43.309Z,23.10
2022-08-19T10:23:10.447Z,23.10
2022-08-19T10:25:38.458Z,23.10
2022-08-19T10:28:06.994Z,23.20
2022-08-19T10:30:37.552Z,23.20
2022-08-19T10:33:08.437Z,23.30
2022-08-19T10:35:56.488Z,23.40
2022-08-19T10:38:31.438Z,23.40
2022-08-19T10:40:59.160Z,23.30
2022-08-19T10:43:25.940Z,23.20
2022-08-19T10:45:57.669Z,23.00
2022-08-19T10:48:24.426Z,22.90
2022-08-19T10:51:09.558Z,22.90
2022-08-19T10:53:36.284Z,22.90
2022-08-19T10:56:21.998Z,22.90
2022-08-19T10:58:49.367Z,22.90
2022-08-19T11:01:16.119Z,22.90
2022-08-19T11:03:43.038Z,22.80
2022-08-19T11:06:09.876Z,22.80
2022-08-19T11:08:38.566Z,22.70
2022-08-19T11:11:05.859Z,22.70
2022-08-19T11:13:37.024Z,22.70
2022-08-19T11:16:09.009Z,22.70
2022-08-19T11:18:39.871Z,22.70
2022-08-19T11:21:12.241Z,22.70
2022-08-19T11:23:38.968Z,22.70
2022-08-19T11:26:05.759Z,22.60
2022-08-19T11:28:32.465Z,22.50
2022-08-19T11:30:59.138Z,22.40
2022-08-19T11:33:27.251Z,22.30
2022-08-19T11:35:55.084Z,22.30
2022-08-19T11:38:21.782Z,22.30
2022-08-19T11:40:58.833Z,22.20
2022-08-19T11:43:27.481Z,22.20
2022-08-19T11:45:55.254Z,22.10
2022-08-19T11:48:24.693Z,22.10
2022-08-19T11:50:52.171Z,22.10
2022-08-19T11:53:20.218Z,22.20
2022-08-19T11:55:47.847Z,22.30
2022-08-19T11:58:19.008Z,22.40
2022-08-19T12:00:46.127Z,22.40
2022-08-19T12:03:13.587Z,22.60
2022-08-19T12:05:40.737Z,22.60
2022-08-19T12:08:07.645Z,22.70
2022-08-19T12:10:34.764Z,22.90
2022-08-19T12:13:01.601Z,22.90
2022-08-19T12:15:29.661Z,23.00
2022-08-19T12:18:04.269Z,22.90
2022-08-19T12:20:31.193Z,22.90
2022-08-19T12:23:00.711Z,22.80
2022-08-19T12:25:27.406Z,22.70
2022-08-19T12:27:57.490Z,22.70
2022-08-19T12:30:24.662Z,22.70
2022-08-19T12:32:52.200Z,22.80
2022-08-19T12:35:20.924Z,22.90
2022-08-19T12:37:56.575Z,23.10
2022-08-19T12:40:26.656Z,23.20
2022-08-19T12:42:54.475Z,23.30
2022-08-19T12:45:21.181Z,23.30
2022-08-19T12:47:49.602Z,23.30
2022-08-19T12:50:16.555Z,23.20
2022-08-19T12:52:43.405Z,23.20
2022-08-19T12:55:10.307Z,23.30
2022-08-19T12:57:37.067Z,23.30
2022-08-19T13:00:12.421Z,23.30
2022-08-19T13:02:40.118Z,23.40
2022-08-19T13:05:09.245Z,23.30
2022-08-19T13:07:36.644Z,23.20
2022-08-19T13:10:04.055Z,23.00
2022-08-19T13:12:30.779Z,22.80
2022-08-19T13:14:57.465Z,22.60
2022-08-19T13:17:25.319Z,22.30
2022-08-19T13:19:52.046Z,22.20
2022-08-19T13:22:18.732Z,22.00
2022-08-19T13:24:47.414Z,21.90
2022-08-19T13:27:14.329Z,21.90
2022-08-19T13:30:00.790Z,21.90
2022-08-19T13:32:46.454Z,21.90
2022-08-19T13:35:16.939Z,21.90
2022-08-19T13:37:44.251Z,21.90
2022-08-19T13:40:18.012Z,21.90
2022-08-19T13:42:48.351Z,21.80
2022-08-19T13:45:17.461Z,21.80
2022-08-19T13:47:45.796Z,21.90
2022-08-19T13:50:13.335Z,21.90
2022-08-19T13:52:40.536Z,21.80
2022-08-19T13:55:07.725Z,21.80
2022-08-19T13:57:34.450Z,21.80
2022-08-19T14:00:01.215Z,21.80
2022-08-19T14:02:27.922Z,21.80
2022-08-19T14:04:54.606Z,21.70
2022-08-19T14:07:22.510Z,21.70
2022-08-19T14:09:49.878Z,21.70
2022-08-19T14:12:28.651Z,21.70
2022-08-19T14:14:55.935Z,21.60
2022-08-19T14:17:22.914Z,21.50
2022-08-19T14:19:49.611Z,21.50
2022-08-19T14:22:22.026Z,21.40
2022-08-19T14:24:49.343Z,21.30
2022-08-19T14:27:16.025Z,21.30
2022-08-19T14:29:42.890Z,21.20
2022-08-19T14:32:11.542Z,21.20
2022-08-19T14:34:46.618Z,21.00
2022-08-19T14:37:16.854Z,21.00
2022-08-19T14:39:43.625Z,21.00
2022-08-19T14:42:11.387Z,20.90
2022-08-19T14:44:38.476Z,20.90
2022-08-19T14:47:05.349Z,20.90
2022-08-19T14:49:32.065Z,20.90
2022-08-19T14:52:04.001Z,21.00
2022-08-19T14:54:30.969Z,21.00
2022-08-19T14:56:57.663Z,21.00
2022-08-19T14:59:24.448Z,21.00
2022-08-19T15:01:51.228Z,20.90
2022-08-19T15:04:17.953Z,20.90
2022-08-19T15:06:44.637Z,20.90
2022-08-19T15:09:11.413Z,20.90
2022-08-19T15:11:39.351Z,20.90
2022-08-19T15:14:06.413Z,21.00
2022-08-19T15:16:33.288Z,20.90
2022-08-19T15:19:00.789Z,21.00
2022-08-19T15:21:28.050Z,21.10
2022-08-19T15:23:55.882Z,21.10
2022-08-19T15:26:22.624Z,21.20
2022-08-19T15:28:49.349Z,21.30
2022-08-19T15:31:25.571Z,21.40
2022-08-19T15:33:58.134Z,21.50
2022-08-19T15:36:26.199Z,21.60
2022-08-19T15:38:53.268Z,21.70
2022-08-19T15:41:25.185Z,21.80
2022-08-19T15:43:54.468Z,21.80
2022-08-19T15:46:22.994Z,21.80
2022-08-19T15:48:56.018Z,21.70
2022-08-19T15:51:24.410Z,21.70
2022-08-19T15:53:51.456Z,21.70
2022-08-19T15:56:18.198Z,21.70
2022-08-19T15:59:03.711Z,21.60
2022-08-19T16:01:49.115Z,21.60
2022-08-19T16:04:35.033Z,21.50
2022-08-19T16:07:02.001Z,21.50
2022-08-19T16:09:29.978Z,21.40
2022-08-19T16:12:01.673Z,21.40
2022-08-19T16:14:29.210Z,21.40
2022-08-19T16:16:56.845Z,21.30
2022-08-19T16:19:23.682Z,21.30
2022-08-19T16:21:52.448Z,21.30
2022-08-19T16:24:20.435Z,21.30
2022-08-19T16:26:48.135Z,21.30
2022-08-19T16:29:15.564Z,21.30
2022-08-19T16:32:00.238Z,21.30
2022-08-19T16:34:29.613Z,21.40
2022-08-19T16:36:56.308Z,21.40
2022-08-19T16:39:23.676Z,21.50
2022-08-19T16:41:50.953Z,21.50
2022-08-19T16:44:18.832Z,21.50
2022-08-19T16:46:46.982Z,21.50
2022-08-19T16:49:54.473Z,21.50
2022-08-19T16:52:12.920Z,21.50
2022-08-19T16:54:41.794Z,21.50
2022-08-19T16:57:11.892Z,21.50
2022-08-19T16:59:48.162Z,21.50
2022-08-19T17:02:19.472Z,21.50
2022-08-19T17:04:57.123Z,21.50
2022-08-19T17:07:26.764Z,21.50
2022-08-19T17:09:53.485Z,21.60
2022-08-19T17:12:23.089Z,21.60
2022-08-19T17:14:58.667Z,21.60
2022-08-19T17:17:28.967Z,21.70
2022-08-19T17:19:56.413Z,21.60
2022-08-19T17:22:23.095Z,21.60
2022-08-19T17:24:49.785Z,21.60
2022-08-19T17:27:16.554Z,21.50
2022-08-19T17:29:46.933Z,21.40
2022-08-19T17:32:14.468Z,21.40
2022-08-19T17:34:41.152Z,21.30
2022-08-19T17:37:07.879Z,21.30
2022-08-19T17:39:37.137Z,21.20
2022-08-19T17:42:08.196Z,21.10
2022-08-19T17:44:36.610Z,21.10
2022-08-19T17:47:04.300Z,21.10
2022-08-19T17:49:33.270Z,21.10
2022-08-19T17:52:00.150Z,21.00
2022-08-19T17:54:33.223Z,21.00
2022-08-19T17:57:00.388Z,21.00
2022-08-19T17:59:30.059Z,20.90
2022-08-19T18:01:57.376Z,20.90
2022-08-19T18:04:24.985Z,20.90
2022-08-19T18:06:54.411Z,20.90
2022-08-19T18:09:26.238Z,20.90
2022-08-19T18:11:55.191Z,20.80
2022-08-19T18:14:28.057Z,20.80
2022-08-19T18:16:59.393Z,20.80
2022-08-19T18:19:26.881Z,20.70
2022-08-19T18:22:07.704Z,20.70
2022-08-19T18:24:37.131Z,20.70
2022-08-19T18:27:04.050Z,20.70
2022-08-19T18:29:33.294Z,20.60
2022-08-19T18:32:00.020Z,20.60
2022-08-19T18:34:27.031Z,20.60
2022-08-19T18:36:54.261Z,20.60
2022-08-19T18:39:53.540Z,20.50
2022-08-19T18:42:39.060Z,20.40
2022-08-19T18:45:24.997Z,20.30
2022-08-19T18:48:10.761Z,20.20
2022-08-19T18:50:53.860Z,20.10
2022-08-19T18:53:20.558Z,20.00
2022-08-19T18:55:49.477Z,20.00
2022-08-19T18:58:16.182Z,19.90
2022-08-19T19:00:43.971Z,19.90
2022-08-19T19:03:11.623Z,19.80
2022-08-19T19:05:39.868Z,19.70
2022-08-19T19:08:07.245Z,19.60
2022-08-19T19:10:35.420Z,19.50
2022-08-19T19:13:02.232Z,19.50
2022-08-19T19:15:29.422Z,19.40
2022-08-19T19:17:56.286Z,19.40
2022-08-19T19:20:36.184Z,19.40
2022-08-19T19:23:03.677Z,19.30
2022-08-19T19:25:49.855Z,19.30
2022-08-19T19:28:17.815Z,19.30
2022-08-19T19:30:44.901Z,19.20
2022-08-19T19:33:12.120Z,19.10
2022-08-19T19:35:40.942Z,19.20
2022-08-19T19:38:12.530Z,19.10
2022-08-19T19:40:39.229Z,19.10
2022-08-19T19:43:06.255Z,19.00
2022-08-19T19:45:33.490Z,19.00
2022-08-19T19:48:00.608Z,19.00
2022-08-19T19:50:30.158Z,19.00
2022-08-19T19:52:57.242Z,18.90
2022-08-19T19:55:26.549Z,18.90
2022-08-19T19:57:57.726Z,18.90
2022-08-19T20:00:25.258Z,18.80
2022-08-19T20:02:55.205Z,18.90
2022-08-19T20:05:22.076Z,18.80
2022-08-19T20:08:08.156Z,18.80
2022-08-19T20:10:34.875Z,18.80
2022-08-19T20:13:04.873Z,18.80
2022-08-19T20:15:32.183Z,18.70
2022-08-19T20:17:59.785Z,18.70
2022-08-19T20:20:26.624Z,18.70
2022-08-19T20:22:53.867Z,18.70
2022-08-19T20:25:22.136Z,18.70
2022-08-19T20:27:49.290Z,18.60
2022-08-19T20:30:19.579Z,18.60
2022-08-19T20:32:46.967Z,18.60
2022-08-19T20:35:14.717Z,18.60
2022-08-19T20:37:41.597Z,18.60
2022-08-19T20:40:13.272Z,18.50
2022-08-19T20:42:40.968Z,18.50
2022-08-19T20:45:09.868Z,18.50
2022-08-19T20:47:56.104Z,18.50
2022-08-19T20:50:23.150Z,18.50
2022-08-19T20:52:50.197Z,18.50
2022-08-19T20:55:21.641Z,18.50
2022-08-19T20:57:48.397Z,18.50
2022-08-19T21:00:15.379Z,18.50
2022-08-19T21:02:42.103Z,18.50
2022-08-19T21:05:08.837Z,18.50
2022-08-19T21:07:39.037Z,18.50
2022-08-19T21:10:07.089Z,18.40
2022-08-19T21:12:33.807Z,18.40
2022-08-19T21:15:00.501Z,18.40
2022-08-19T21:17:27.177Z,18.40
2022-08-19T21:19:53.860Z,18.40
2022-08-19T21:22:20.578Z,18.40
2022-08-19T21:24:47.289Z,18.40
2022-08-19T21:27:13.987Z,18.30
2022-08-19T21:29:42.107Z,18.30
2022-08-19T21:32:11.131Z,18.30
2022-08-19T21:34:41.734Z,18.30
2022-08-19T21:37:14.016Z,18.30
2022-08-19T21:39:52.273Z,18.20
2022-08-19T21:42:19.045Z,18.20
2022-08-19T21:44:46.015Z,18.20
2022-08-19T21:47:12.873Z,18.10
2022-08-19T21:49:40.009Z,18.10
2022-08-19T21:52:06.985Z,18.00
2022-08-19T21:54:37.849Z,18.00
2022-08-19T21:57:07.099Z,18.00
2022-08-19T21:59:39.753Z,18.00
2022-08-19T22:02:19.478Z,18.00
2022-08-19T22:04:46.607Z,17.90
2022-08-19T22:07:14.207Z,18.00
2022-08-19T22:09:41.524Z,17.90
2022-08-19T22:12:11.988Z,18.00
2022-08-19T22:14:38.885Z,18.00
2022-08-19T22:17:06.109Z,17.90
2022-08-19T22:19:33.232Z,18.00
2022-08-19T22:22:00.556Z,18.00
2022-08-19T22:24:27.334Z,18.00
2022-08-19T22:26:54.015Z,17.90
2022-08-19T22:29:25.862Z,17.90
2022-08-19T22:32:01.548Z,17.90
2022-08-19T22:34:48.241Z,17.90
2022-08-19T22:37:14.967Z,17.90
2022-08-19T22:39:41.713Z,17.90
2022-08-19T22:42:08.575Z,17.90
2022-08-19T22:44:35.278Z,17.90
2022-08-19T22:47:02.293Z,17.90
2022-08-19T22:49:29.077Z,17.90
2022-08-19T22:52:14.489Z,17.80
2022-08-19T22:54:41.199Z,17.80
2022-08-19T22:57:07.889Z,17.80
2022-08-19T22:59:34.593Z,17.80
2022-08-19T23:02:01.277Z,17.80
2022-08-19T23:04:27.984Z,17.90
2022-08-19T23:06:54.669Z,17.80
2022-08-19T23:09:23.315Z,17.80
2022-08-19T23:11:50.288Z,17.80
2022-08-19T23:14:17.572Z,17.80
2022-08-19T23:16:50.409Z,17.80
2022-08-19T23:19:17.352Z,17.80
2022-08-19T23:21:44.095Z,17.80
2022-08-19T23:24:11.081Z,17.80
2022-08-19T23:26:37.974Z,17.80
2022-08-19T23:29:23.969Z,17.80
2022-08-19T23:31:50.781Z,17.80
2022-08-19T23:34:17.989Z,17.80
2022-08-19T23:36:44.710Z,17.80
2022-08-19T23:39:11.430Z,17.80
2022-08-19T23:41:38.560Z,17.80
2022-08-19T23:44:06.492Z,17.80
2022-08-19T23:46:54.324Z,17.80
2022-08-19T23:49:21.520Z,17.80
2022-08-19T23:51:48.226Z,17.80
2022-08-19T23:54:14.909Z,17.80
2022-08-19T23:56:41.604Z,17.80
2022-08-19T23:59:08.305Z,17.80
